Time;durP1;ratioP1;P1;durP2;ratioP2;P2;SDS_P1;SDS_P2;PMS_P1;PMS_P2;Temp;Humidity;BMP_temperature;BMP_pressure;BME280_temperature;BME280_humidity;BME280_pressure;Samples;Min_cycle;Max_cycle;Signal;HPM_P1;HPM_P2
2022/03/30 00:00:47;;;;;;;37.87;18.90;;;;;;;;;;5095204;28;20564;-57
2022/03/30 00:03:13;;;;;;;33.23;17.60;;;;;;;;;;5113356;28;20440;-57
2022/03/30 00:05:40;;;;;;;37.93;18.57;;;;;;;;;;5113479;28;20413;-54
2022/03/30 00:08:06;;;;;;;40.83;18.37;;;;;;;;;;5113425;28;20416;-56
2022/03/30 00:10:33;;;;;;;38.03;17.43;;;;;;;;;;5112714;28;20445;-58
2022/03/30 00:12:59;;;;;;;38.80;17.77;;;;;;;;;;5113247;28;20416;-57
2022/03/30 00:15:25;;;;;;;47.80;18.43;;;;;;;;;;5113319;28;20458;-58
2022/03/30 00:17:51;;;;;;;35.60;17.10;;;;;;;;;;5113339;28;20406;-59
2022/03/30 00:20:18;;;;;;;36.90;17.93;;;;;;;;;;5112960;28;20571;-63
2022/03/30 00:22:44;;;;;;;34.00;17.43;;;;;;;;;;5094938;28;20897;-60
2022/03/30 00:25:11;;;;;;;49.83;17.80;;;;;;;;;;5113142;28;20418;-60
2022/03/30 00:27:37;;;;;;;32.03;16.77;;;;;;;;;;5113003;28;20409;-62
2022/03/30 00:30:07;;;;;;;33.93;17.10;;;;;;;;;;5113245;28;20401;-62
2022/03/30 00:32:33;;;;;;;32.63;17.03;;;;;;;;;;5113034;28;20488;-60
2022/03/30 00:34:59;;;;;;;30.53;15.00;;;;;;;;;;5113084;28;20483;-62
2022/03/30 00:37:25;;;;;;;30.60;15.40;;;;;;;;;;5095281;28;20412;-57
2022/03/30 00:39:53;;;;;;;33.73;15.20;;;;;;;;;;5113065;28;20555;-59
2022/03/30 00:42:20;;;;;;;24.63;14.73;;;;;;;;;;5112909;28;20461;-58
2022/03/30 00:44:49;;;;;;;32.20;15.93;;;;;;;;;;5112928;28;20475;-60
2022/03/30 00:47:23;;;;;;;28.43;15.00;;;;;;;;;;5094583;28;20426;-58
2022/03/30 00:49:49;;;;;;;29.23;15.47;;;;;;;;;;5112752;28;20417;-60
2022/03/30 00:52:16;;;;;;;32.93;15.23;;;;;;;;;;5112826;28;20426;-59
2022/03/30 00:54:43;;;;;;;23.70;13.80;;;;;;;;;;5112785;28;20405;-59
2022/03/30 00:57:10;;;;;;;25.57;13.77;;;;;;;;;;5094663;28;20412;-57
2022/03/30 00:59:36;;;;;;;30.23;13.47;;;;;;;;;;5112772;28;20817;-58
2022/03/30 01:02:02;;;;;;;26.67;14.97;;;;;;;;;;5112792;28;20417;-56
2022/03/30 01:04:29;;;;;;;31.50;15.40;;;;;;;;;;5094422;28;20471;-57
2022/03/30 01:06:55;;;;;;;28.97;15.27;;;;;;;;;;5112881;28;20424;-58
2022/03/30 01:09:21;;;;;;;34.33;14.30;;;;;;;;;;5112768;28;20443;-55
2022/03/30 01:11:47;;;;;;;32.33;15.40;;;;;;;;;;5112703;28;20408;-60
2022/03/30 01:14:17;;;;;;;27.70;13.40;;;;;;;;;;5112564;28;20401;-58
2022/03/30 01:16:43;;;;;;;31.93;13.23;;;;;;;;;;5112534;28;20401;-57
2022/03/30 01:19:10;;;;;;;23.40;12.40;;;;;;;;;;5112323;28;21040;-56
2022/03/30 01:21:37;;;;;;;24.77;12.60;;;;;;;;;;5113198;28;20770;-57
2022/03/30 01:24:04;;;;;;;27.60;11.90;;;;;;;;;;5116588;28;20792;-58
2022/03/30 01:26:30;;;;;;;14.87;10.13;;;;;;;;;;5116380;28;20405;-56
2022/03/30 01:28:56;;;;;;;20.90;11.27;;;;;;;;;;5116424;28;20409;-57
2022/03/30 01:34:07;;;;;;;21.87;10.67;;;;;;;;;;5116282;28;20447;-56
2022/03/30 01:36:35;;;;;;;22.00;9.73;;;;;;;;;;5097893;28;20413;-55
2022/03/30 01:39:02;;;;;;;27.83;9.57;;;;;;;;;;5116101;28;20459;-58
2022/03/30 01:41:29;;;;;;;22.47;9.80;;;;;;;;;;5116281;28;20454;-58
2022/03/30 01:43:55;;;;;;;20.87;10.40;;;;;;;;;;5116221;28;20919;-57
2022/03/30 01:46:21;;;;;;;15.27;9.47;;;;;;;;;;5116109;28;20401;-58
2022/03/30 01:48:47;;;;;;;27.93;10.40;;;;;;;;;;5115946;28;20449;-57
2022/03/30 01:51:13;;;;;;;19.87;10.13;;;;;;;;;;5115876;28;20519;-55
2022/03/30 01:53:39;;;;;;;17.70;10.17;;;;;;;;;;5097925;28;20412;-58
2022/03/30 01:56:05;;;;;;;17.50;9.83;;;;;;;;;;5115874;28;20400;-58
2022/03/30 01:58:31;;;;;;;16.50;9.47;;;;;;;;;;5115692;28;20401;-56
2022/03/30 02:00:57;;;;;;;18.20;9.13;;;;;;;;;;5115672;28;20909;-59
2022/03/30 02:03:24;;;;;;;18.13;9.67;;;;;;;;;;5115907;28;20893;-57
2022/03/30 02:05:50;;;;;;;18.77;10.10;;;;;;;;;;5115660;28;20441;-57
2022/03/30 02:08:16;;;;;;;19.83;9.30;;;;;;;;;;5115533;28;20433;-58
2022/03/30 02:10:42;;;;;;;19.70;8.80;;;;;;;;;;5115597;28;20409;-56
2022/03/30 02:13:10;;;;;;;18.50;9.80;;;;;;;;;;5115542;28;20505;-57
2022/03/30 02:15:36;;;;;;;18.57;9.73;;;;;;;;;;5115467;28;20413;-57
2022/03/30 02:18:05;;;;;;;22.07;9.50;;;;;;;;;;5115333;28;20420;-55
2022/03/30 02:20:31;;;;;;;17.37;9.57;;;;;;;;;;5115195;28;20484;-55
2022/03/30 02:22:57;;;;;;;18.23;9.70;;;;;;;;;;5115237;28;20483;-57
2022/03/30 02:25:23;;;;;;;25.60;10.20;;;;;;;;;;5115303;28;20419;-58
2022/03/30 02:27:49;;;;;;;14.57;10.33;;;;;;;;;;5115202;28;20405;-58
2022/03/30 02:30:16;;;;;;;25.00;10.87;;;;;;;;;;5115135;28;20436;-56
2022/03/30 02:32:44;;;;;;;27.33;12.40;;;;;;;;;;5114927;28;20970;-58
2022/03/30 02:35:12;;;;;;;22.77;11.20;;;;;;;;;;5114485;28;20406;-57
2022/03/30 02:37:38;;;;;;;20.50;11.33;;;;;;;;;;5114988;28;20536;-57
2022/03/30 02:40:05;;;;;;;20.80;10.83;;;;;;;;;;5114964;28;20468;-58
2022/03/30 02:42:31;;;;;;;18.80;10.60;;;;;;;;;;5096553;28;21034;-58
2022/03/30 02:44:57;;;;;;;20.63;10.27;;;;;;;;;;5114884;28;20461;-58
2022/03/30 02:48:17;;;;;;;19.60;9.80;;;;;;;;;;5096719;28;20431;-61
2022/03/30 02:50:09;;;;;;;18.47;9.93;;;;;;;;;;5114657;28;20401;-59
2022/03/30 02:52:35;;;;;;;19.70;9.73;;;;;;;;;;5114726;28;20413;-55
2022/03/30 02:55:01;;;;;;;13.37;8.67;;;;;;;;;;5114768;28;20439;-58
2022/03/30 02:57:27;;;;;;;17.90;9.20;;;;;;;;;;5114622;28;20413;-59
2022/03/30 02:59:53;;;;;;;16.87;8.97;;;;;;;;;;5115012;28;20517;-57
2022/03/30 03:02:19;;;;;;;12.57;8.23;;;;;;;;;;5114691;28;20800;-61
2022/03/30 03:04:45;;;;;;;16.63;8.97;;;;;;;;;;5114559;28;20405;-60
2022/03/30 03:07:14;;;;;;;17.60;9.63;;;;;;;;;;5114720;28;20462;-57
2022/03/30 03:09:40;;;;;;;16.53;8.87;;;;;;;;;;5096148;28;20921;-57
2022/03/30 03:12:06;;;;;;;18.00;8.60;;;;;;;;;;5114538;28;20893;-57
2022/03/30 03:14:33;;;;;;;14.60;8.50;;;;;;;;;;5096369;28;20420;-58
2022/03/30 03:16:59;;;;;;;15.17;8.40;;;;;;;;;;5096134;28;20417;-57
2022/03/30 03:19:25;;;;;;;19.30;9.40;;;;;;;;;;5114078;28;20472;-56
2022/03/30 03:21:51;;;;;;;15.70;8.97;;;;;;;;;;5096114;28;20778;-57
2022/03/30 03:24:17;;;;;;;14.80;8.30;;;;;;;;;;5114010;28;20412;-55
2022/03/30 03:26:46;;;;;;;14.23;7.83;;;;;;;;;;5113942;28;20435;-57
2022/03/30 03:29:12;;;;;;;17.30;8.63;;;;;;;;;;5104750;28;20936;-55
2022/03/30 03:31:38;;;;;;;16.33;8.60;;;;;;;;;;5113817;28;20409;-59
2022/03/30 03:34:08;;;;;;;13.83;8.50;;;;;;;;;;5113788;28;20416;-56
2022/03/30 03:36:34;;;;;;;20.40;8.10;;;;;;;;;;5113647;28;20405;-57
2022/03/30 03:39:00;;;;;;;17.23;8.63;;;;;;;;;;5113573;28;20448;-56
2022/03/30 03:41:27;;;;;;;12.87;8.10;;;;;;;;;;5113526;28;20466;-57
2022/03/30 03:43:53;;;;;;;12.70;8.40;;;;;;;;;;5113698;28;20404;-56
2022/03/30 03:46:19;;;;;;;18.67;9.17;;;;;;;;;;5094462;28;20420;-57
2022/03/30 03:48:45;;;;;;;20.47;8.80;;;;;;;;;;5113481;28;20976;-58
2022/03/30 03:51:12;;;;;;;16.40;8.33;;;;;;;;;;5113271;28;20443;-55
2022/03/30 03:53:37;;;;;;;18.23;9.00;;;;;;;;;;5113663;28;20447;-59
2022/03/30 03:56:04;;;;;;;11.83;7.40;;;;;;;;;;5095388;28;20413;-58
2022/03/30 03:58:30;;;;;;;18.87;9.40;;;;;;;;;;5113564;28;20420;-58
2022/03/30 04:00:56;;;;;;;17.63;8.30;;;;;;;;;;5095184;28;20530;-57
2022/03/30 04:03:23;;;;;;;16.50;8.23;;;;;;;;;;5113476;28;20405;-56
2022/03/30 04:05:49;;;;;;;15.23;7.77;;;;;;;;;;5113487;28;20470;-59
2022/03/30 04:08:20;;;;;;;19.20;8.17;;;;;;;;;;5113172;28;20470;-57
2022/03/30 04:10:47;;;;;;;11.63;7.80;;;;;;;;;;5113302;28;20393;-58
2022/03/30 04:13:13;;;;;;;16.53;8.10;;;;;;;;;;5113136;28;20815;-57
2022/03/30 04:15:39;;;;;;;13.90;7.97;;;;;;;;;;5113269;28;20796;-57
2022/03/30 04:18:07;;;;;;;13.40;8.03;;;;;;;;;;5113159;28;20787;-60
2022/03/30 04:20:33;;;;;;;16.90;7.90;;;;;;;;;;5112866;28;20475;-58
2022/03/30 04:23:00;;;;;;;18.73;8.80;;;;;;;;;;5113057;28;20397;-60
2022/03/30 04:25:26;;;;;;;20.90;8.60;;;;;;;;;;5113013;28;20470;-57
2022/03/30 04:27:53;;;;;;;17.20;7.80;;;;;;;;;;5113156;28;20401;-61
2022/03/30 04:30:20;;;;;;;18.13;8.20;;;;;;;;;;5112834;28;20447;-60
2022/03/30 04:32:47;;;;;;;13.57;8.70;;;;;;;;;;5112932;28;20401;-62
2022/03/30 04:35:14;;;;;;;15.07;8.23;;;;;;;;;;5112864;28;20742;-61
2022/03/30 04:37:40;;;;;;;16.43;8.70;;;;;;;;;;5112723;28;20397;-61
2022/03/30 04:40:07;;;;;;;10.37;7.43;;;;;;;;;;5094575;28;20471;-58
2022/03/30 04:42:34;;;;;;;20.23;8.07;;;;;;;;;;5112939;28;20401;-61
2022/03/30 04:45:00;;;;;;;17.47;7.97;;;;;;;;;;5112715;28;20417;-59
2022/03/30 04:47:27;;;;;;;19.83;7.67;;;;;;;;;;5112840;28;20491;-58
2022/03/30 04:49:53;;;;;;;15.70;8.07;;;;;;;;;;5112855;28;20409;-60
2022/03/30 04:52:19;;;;;;;14.87;8.23;;;;;;;;;;5111830;28;20495;-58
2022/03/30 04:54:45;;;;;;;17.80;9.00;;;;;;;;;;5112087;28;20443;-54
2022/03/30 04:57:11;;;;;;;15.60;8.60;;;;;;;;;;5113028;28;20401;-54
2022/03/30 04:59:37;;;;;;;16.33;8.40;;;;;;;;;;5115928;28;20463;-55
2022/03/30 05:02:04;;;;;;;15.93;8.17;;;;;;;;;;5097897;28;20415;-59
2022/03/30 05:04:32;;;;;;;17.90;7.50;;;;;;;;;;5115613;28;20419;-58
2022/03/30 05:07:01;;;;;;;22.23;9.00;;;;;;;;;;5115852;28;20403;-59
2022/03/30 05:09:27;;;;;;;15.10;7.77;;;;;;;;;;5115366;28;20908;-60
2022/03/30 05:11:53;;;;;;;15.23;8.47;;;;;;;;;;5114691;28;20789;-56
2022/03/30 05:14:19;;;;;;;15.43;8.60;;;;;;;;;;5115595;28;20500;-57
2022/03/30 05:16:45;;;;;;;13.67;7.67;;;;;;;;;;5115497;28;20414;-59
2022/03/30 05:19:11;;;;;;;16.63;8.87;;;;;;;;;;5115214;28;20456;-57
2022/03/30 05:21:37;;;;;;;17.27;8.20;;;;;;;;;;5114903;28;20401;-56
2022/03/30 05:24:04;;;;;;;16.77;7.87;;;;;;;;;;5095213;28;20401;-58
2022/03/30 05:26:30;;;;;;;23.73;8.00;;;;;;;;;;5114842;28;20405;-55
2022/03/30 05:28:57;;;;;;;19.47;9.10;;;;;;;;;;5115426;28;20397;-56
2022/03/30 05:31:23;;;;;;;20.97;8.33;;;;;;;;;;5097281;28;20500;-59
2022/03/30 05:33:49;;;;;;;16.93;9.00;;;;;;;;;;5115192;28;20401;-58
2022/03/30 05:36:21;;;;;;;14.30;8.23;;;;;;;;;;5115119;28;20400;-57
2022/03/30 05:38:48;;;;;;;18.23;9.00;;;;;;;;;;5096549;28;20442;-58
2022/03/30 05:41:15;;;;;;;14.23;8.33;;;;;;;;;;5115081;28;20413;-58
2022/03/30 05:43:44;;;;;;;14.20;7.90;;;;;;;;;;5115071;28;20405;-53
2022/03/30 05:46:10;;;;;;;15.50;7.77;;;;;;;;;;5096678;28;20416;-59
2022/03/30 05:48:36;;;;;;;11.83;7.00;;;;;;;;;;5115909;28;20427;-55
2022/03/30 05:51:08;;;;;;;18.07;7.70;;;;;;;;;;5116098;28;20928;-56
2022/03/30 05:53:34;;;;;;;13.80;7.90;;;;;;;;;;5116226;28;20393;-57
2022/03/30 05:56:01;;;;;;;17.93;7.80;;;;;;;;;;5097909;28;20432;-57
2022/03/30 05:58:27;;;;;;;14.77;7.50;;;;;;;;;;5097734;28;20405;-56
2022/03/30 06:00:53;;;;;;;21.50;7.07;;;;;;;;;;5097863;28;20473;-56
2022/03/30 06:03:19;;;;;;;14.27;7.50;;;;;;;;;;5115738;28;20409;-57
2022/03/30 06:05:45;;;;;;;16.53;7.47;;;;;;;;;;5115671;28;20989;-55
2022/03/30 06:08:11;;;;;;;10.70;7.03;;;;;;;;;;5114577;28;20401;-56
2022/03/30 06:10:37;;;;;;;15.63;6.93;;;;;;;;;;5097330;28;20405;-61
2022/03/30 06:13:04;;;;;;;11.83;6.43;;;;;;;;;;5115448;28;20405;-57
2022/03/30 06:15:31;;;;;;;14.70;6.77;;;;;;;;;;5115468;28;20434;-58
2022/03/30 06:17:58;;;;;;;10.67;6.77;;;;;;;;;;5115338;28;20416;-57
2022/03/30 06:20:24;;;;;;;12.90;7.00;;;;;;;;;;5115102;28;20515;-59
2022/03/30 06:22:54;;;;;;;27.40;7.27;;;;;;;;;;5115286;28;20397;-59
2022/03/30 06:25:22;;;;;;;14.87;6.67;;;;;;;;;;5115326;28;20749;-59
2022/03/30 06:27:48;;;;;;;14.80;6.17;;;;;;;;;;5096918;28;20420;-59
2022/03/30 06:30:14;;;;;;;17.87;7.83;;;;;;;;;;5115003;28;20401;-58
2022/03/30 06:32:40;;;;;;;12.27;6.60;;;;;;;;;;5115296;28;20405;-57
2022/03/30 06:35:10;;;;;;;16.40;6.53;;;;;;;;;;5096837;28;20997;-61
2022/03/30 06:37:44;;;;;;;17.50;7.03;;;;;;;;;;5115155;28;20405;-58
2022/03/30 06:40:19;;;;;;;11.67;6.87;;;;;;;;;;5115144;28;20464;-61
2022/03/30 06:42:48;;;;;;;20.47;7.30;;;;;;;;;;5115167;28;20541;-58
2022/03/30 06:45:15;;;;;;;14.03;6.53;;;;;;;;;;5096805;28;20413;-59
2022/03/30 06:47:41;;;;;;;11.90;7.20;;;;;;;;;;5096973;28;20413;-57
2022/03/30 06:50:08;;;;;;;14.33;6.50;;;;;;;;;;5115162;28;20409;-61
2022/03/30 06:52:40;;;;;;;16.20;7.57;;;;;;;;;;5097014;28;20448;-60
2022/03/30 06:55:07;;;;;;;21.23;6.90;;;;;;;;;;5114862;28;20428;-58
2022/03/30 06:57:33;;;;;;;27.60;7.43;;;;;;;;;;5114828;28;20401;-60
2022/03/30 06:59:59;;;;;;;11.13;6.47;;;;;;;;;;5096590;28;20595;-58
2022/03/30 07:02:25;;;;;;;19.23;7.50;;;;;;;;;;5114785;28;20945;-57
2022/03/30 07:04:51;;;;;;;18.13;6.90;;;;;;;;;;5114946;28;20412;-58
2022/03/30 07:10:17;;;;;;;12.63;7.10;;;;;;;;;;5114669;28;20458;-58
2022/03/30 07:12:45;;;;;;;14.53;7.43;;;;;;;;;;5114680;28;20393;-59
2022/03/30 07:15:11;;;;;;;17.57;7.10;;;;;;;;;;5114578;28;20461;-60
2022/03/30 07:17:44;;;;;;;11.77;7.70;;;;;;;;;;5114325;28;20830;-58
2022/03/30 07:20:14;;;;;;;18.03;7.80;;;;;;;;;;5113910;28;20559;-59
2022/03/30 07:22:40;;;;;;;16.30;7.43;;;;;;;;;;5114239;28;20456;-57
2022/03/30 07:25:06;;;;;;;12.97;7.33;;;;;;;;;;5114222;28;20406;-57
2022/03/30 07:27:32;;;;;;;19.07;7.90;;;;;;;;;;5114173;28;20405;-60
2022/03/30 07:29:58;;;;;;;15.10;7.43;;;;;;;;;;5095983;28;20908;-60
2022/03/30 07:32:24;;;;;;;14.47;6.67;;;;;;;;;;5114101;28;20477;-60
2022/03/30 07:34:53;;;;;;;16.97;7.50;;;;;;;;;;5113879;28;20408;-60
2022/03/30 07:37:20;;;;;;;14.37;6.97;;;;;;;;;;5113956;28;20450;-59
2022/03/30 07:39:46;;;;;;;14.30;7.80;;;;;;;;;;5113747;28;20867;-58
2022/03/30 07:42:12;;;;;;;16.00;7.47;;;;;;;;;;5113949;28;20412;-60
2022/03/30 07:44:38;;;;;;;18.93;8.17;;;;;;;;;;5113730;28;20413;-59
2022/03/30 07:47:07;;;;;;;14.30;6.60;;;;;;;;;;5113767;28;20492;-57
2022/03/30 07:49:33;;;;;;;25.37;7.93;;;;;;;;;;5113473;28;20405;-56
2022/03/30 07:52:03;;;;;;;13.70;7.23;;;;;;;;;;5113444;28;20404;-59
2022/03/30 07:54:29;;;;;;;10.73;6.83;;;;;;;;;;5113599;28;20408;-60
2022/03/30 07:56:55;;;;;;;10.90;6.47;;;;;;;;;;5113558;28;20429;-59
2022/03/30 07:59:21;;;;;;;17.20;6.40;;;;;;;;;;5113576;28;20499;-59
2022/03/30 08:01:47;;;;;;;21.90;7.10;;;;;;;;;;5095129;28;20409;-59
2022/03/30 08:04:13;;;;;;;13.93;6.43;;;;;;;;;;5095196;28;20413;-62
2022/03/30 08:06:39;;;;;;;13.93;7.40;;;;;;;;;;5113470;28;20442;-63
2022/03/30 08:09:05;;;;;;;10.83;6.97;;;;;;;;;;5113243;28;20405;-58
2022/03/30 08:11:31;;;;;;;13.60;7.70;;;;;;;;;;5113407;28;20450;-59
2022/03/30 08:14:00;;;;;;;17.80;6.73;;;;;;;;;;5113259;28;20397;-60
2022/03/30 08:16:26;;;;;;;12.40;7.43;;;;;;;;;;5113378;28;20415;-58
2022/03/30 08:18:52;;;;;;;12.47;7.47;;;;;;;;;;5095192;28;20405;-58
2022/03/30 08:24:03;;;;;;;13.23;7.00;;;;;;;;;;5113340;28;20400;-59
2022/03/30 08:26:31;;;;;;;13.50;7.13;;;;;;;;;;5094967;28;20409;-62
2022/03/30 08:28:57;;;;;;;8.47;7.20;;;;;;;;;;5113192;28;20401;-61
2022/03/30 08:31:23;;;;;;;14.13;8.27;;;;;;;;;;5112763;28;20458;-59
2022/03/30 08:33:49;;;;;;;10.50;6.80;;;;;;;;;;5112924;28;20432;-60
2022/03/30 08:36:16;;;;;;;14.30;7.60;;;;;;;;;;5094864;28;20448;-58
2022/03/30 08:38:42;;;;;;;16.30;8.00;;;;;;;;;;5094607;28;20413;-59
2022/03/30 08:41:09;;;;;;;10.03;6.60;;;;;;;;;;5109457;28;20480;-57
2022/03/30 08:43:36;;;;;;;15.20;7.50;;;;;;;;;;5107078;28;20462;-57
2022/03/30 08:46:03;;;;;;;18.17;8.43;;;;;;;;;;5093984;28;20932;-55
2022/03/30 08:48:29;;;;;;;18.50;7.97;;;;;;;;;;5112744;28;20412;-58
2022/03/30 08:50:57;;;;;;;13.43;7.40;;;;;;;;;;5113025;28;20492;-61
2022/03/30 08:53:28;;;;;;;14.73;8.80;;;;;;;;;;5112672;28;20400;-57
2022/03/30 08:55:54;;;;;;;16.87;9.23;;;;;;;;;;5112723;28;20481;-57
2022/03/30 08:58:20;;;;;;;13.33;8.13;;;;;;;;;;5112623;28;20404;-58
2022/03/30 09:00:46;;;;;;;24.80;9.20;;;;;;;;;;5112449;28;20460;-61
2022/03/30 09:03:14;;;;;;;16.60;8.27;;;;;;;;;;5111948;28;20404;-62
2022/03/30 09:05:40;;;;;;;16.90;7.90;;;;;;;;;;5112600;28;20427;-60
2022/03/30 09:08:08;;;;;;;18.07;8.63;;;;;;;;;;5094320;28;20928;-61
2022/03/30 09:10:35;;;;;;;13.40;7.77;;;;;;;;;;5112642;28;20412;-59
2022/03/30 09:13:07;;;;;;;25.33;7.73;;;;;;;;;;5112026;28;20435;-59
2022/03/30 09:15:36;;;;;;;17.43;7.60;;;;;;;;;;5113023;28;20415;-59
2022/03/30 09:18:04;;;;;;;9.73;7.70;;;;;;;;;;5094300;28;20466;-58
2022/03/30 09:20:31;;;;;;;20.60;8.23;;;;;;;;;;5112098;28;20469;-57
2022/03/30 09:22:58;;;;;;;15.57;8.87;;;;;;;;;;5112032;28;20401;-57
2022/03/30 09:25:25;;;;;;;19.97;8.13;;;;;;;;;;5112555;28;20905;-61
2022/03/30 09:27:52;;;;;;;17.17;7.40;;;;;;;;;;5112857;28;20503;-59
2022/03/30 09:30:19;;;;;;;11.93;8.17;;;;;;;;;;5112322;28;20415;-61
2022/03/30 09:32:46;;;;;;;13.00;7.60;;;;;;;;;;5111845;28;20405;-59
2022/03/30 09:35:33;;;;;;;18.03;8.20;;;;;;;;;;5112320;28;20409;-56
2022/03/30 09:38:00;;;;;;;16.43;8.30;;;;;;;;;;5107448;28;20531;-60
2022/03/30 09:40:34;;;;;;;20.67;7.90;;;;;;;;;;5093581;28;20472;-56
2022/03/30 09:43:29;;;;;;;10.73;7.87;;;;;;;;;;5111982;28;20546;-57
2022/03/30 09:46:04;;;;;;;16.10;8.03;;;;;;;;;;5094596;28;20425;-58
2022/03/30 09:48:31;;;;;;;16.80;8.40;;;;;;;;;;5115993;28;20627;-61
2022/03/30 09:50:57;;;;;;;13.03;7.67;;;;;;;;;;5115840;28;20440;-62
2022/03/30 09:53:28;;;;;;;15.43;8.00;;;;;;;;;;5115468;28;20415;-61
2022/03/30 09:55:58;;;;;;;13.67;7.63;;;;;;;;;;5116030;28;20405;-61
2022/03/30 09:58:25;;;;;;;16.07;7.83;;;;;;;;;;5115814;28;20469;-59
2022/03/30 10:01:09;;;;;;;15.70;8.50;;;;;;;;;;5097590;28;20521;-59
2022/03/30 10:03:46;;;;;;;10.63;7.77;;;;;;;;;;5115021;28;20441;-59
2022/03/30 10:06:13;;;;;;;13.10;7.00;;;;;;;;;;5115471;28;20411;-60
2022/03/30 10:08:40;;;;;;;20.00;9.67;;;;;;;;;;5115517;28;20401;-62
2022/03/30 10:11:06;;;;;;;9.93;7.63;;;;;;;;;;5115387;28;20429;-61
2022/03/30 10:13:32;;;;;;;17.23;8.20;;;;;;;;;;5114930;28;20436;-59
2022/03/30 10:15:58;;;;;;;14.87;8.17;;;;;;;;;;5115549;28;20401;-62
2022/03/30 10:18:25;;;;;;;13.37;7.67;;;;;;;;;;5115350;28;20495;-62
2022/03/30 10:21:02;;;;;;;13.57;7.80;;;;;;;;;;5096850;28;20485;-59
2022/03/30 10:23:46;;;;;;;12.90;8.30;;;;;;;;;;5114602;28;20757;-62
2022/03/30 10:26:23;;;;;;;18.63;8.90;;;;;;;;;;5096652;28;20458;-62
2022/03/30 10:28:57;;;;;;;15.17;8.57;;;;;;;;;;5114980;28;20416;-62
2022/03/30 10:31:25;;;;;;;18.83;8.63;;;;;;;;;;5115348;28;20804;-64
2022/03/30 10:33:52;;;;;;;17.50;10.47;;;;;;;;;;5114479;28;20855;-63
2022/03/30 10:36:24;;;;;;;14.67;8.20;;;;;;;;;;5114927;28;20405;-66
2022/03/30 10:39:09;;;;;;;11.87;7.87;;;;;;;;;;5114778;28;20420;-63
2022/03/30 10:41:52;;;;;;;13.00;9.10;;;;;;;;;;5104635;28;20429;-61
2022/03/30 10:44:38;;;;;;;13.07;8.07;;;;;;;;;;5094039;28;20406;-59
2022/03/30 10:47:10;;;;;;;14.30;7.70;;;;;;;;;;5076199;28;20421;-64
2022/03/30 10:49:42;;;;;;;15.70;8.13;;;;;;;;;;5094262;28;20421;-61
2022/03/30 10:52:27;;;;;;;12.80;7.80;;;;;;;;;;5093850;28;20849;-62
2022/03/30 10:55:13;;;;;;;13.63;8.70;;;;;;;;;;5075597;28;20426;-63
2022/03/30 10:57:45;;;;;;;13.67;8.10;;;;;;;;;;5093995;28;20517;-63
2022/03/30 11:00:22;;;;;;;21.00;7.60;;;;;;;;;;5093967;28;20469;-58
2022/03/30 11:02:48;;;;;;;13.30;7.70;;;;;;;;;;5093525;28;20409;-63
2022/03/30 11:05:18;;;;;;;12.07;8.50;;;;;;;;;;5093647;28;20417;-63
2022/03/30 11:07:44;;;;;;;15.40;8.07;;;;;;;;;;5093621;28;20405;-60
2022/03/30 11:10:37;;;;;;;13.17;7.93;;;;;;;;;;5093791;28;20409;-63
2022/03/30 11:13:05;;;;;;;12.80;7.90;;;;;;;;;;5089697;28;20425;-58
2022/03/30 11:15:32;;;;;;;16.40;7.63;;;;;;;;;;5093381;28;20414;-59
2022/03/30 11:18:18;;;;;;;12.33;7.90;;;;;;;;;;5093639;28;20398;-59
2022/03/30 11:21:03;;;;;;;14.63;8.43;;;;;;;;;;5093268;28;20515;-60
2022/03/30 11:23:29;;;;;;;13.53;8.70;;;;;;;;;;5075000;28;20470;-60
2022/03/30 11:25:58;;;;;;;11.40;7.30;;;;;;;;;;5075161;28;20520;-57
2022/03/30 11:28:37;;;;;;;11.50;7.50;;;;;;;;;;5093663;28;20410;-58
2022/03/30 11:31:05;;;;;;;12.90;8.03;;;;;;;;;;5093470;28;20438;-57
2022/03/30 11:33:35;;;;;;;13.20;7.47;;;;;;;;;;5074871;28;20778;-58
2022/03/30 11:36:04;;;;;;;17.17;8.00;;;;;;;;;;5093067;28;20410;-63
2022/03/30 11:38:40;;;;;;;15.53;7.67;;;;;;;;;;5093434;28;20405;-61
2022/03/30 11:41:08;;;;;;;14.00;8.23;;;;;;;;;;5093194;28;20522;-59
2022/03/30 11:46:25;;;;;;;11.20;8.20;;;;;;;;;;5093283;28;20463;-57
2022/03/30 11:48:55;;;;;;;17.40;7.77;;;;;;;;;;5093369;28;20414;-63
2022/03/30 11:51:27;;;;;;;13.43;7.63;;;;;;;;;;5093387;28;20402;-65
2022/03/30 11:54:12;;;;;;;15.60;8.20;;;;;;;;;;5093064;28;20492;-62
2022/03/30 11:56:39;;;;;;;11.03;7.63;;;;;;;;;;5093008;28;20809;-59
2022/03/30 11:59:06;;;;;;;14.97;8.57;;;;;;;;;;5074822;28;20839;-58
2022/03/30 12:01:36;;;;;;;15.17;7.87;;;;;;;;;;5092570;28;20418;-56
2022/03/30 12:04:02;;;;;;;15.03;8.23;;;;;;;;;;5092907;28;20413;-58
2022/03/30 12:06:28;;;;;;;11.07;8.00;;;;;;;;;;5092186;28;20945;-59
2022/03/30 12:08:54;;;;;;;19.37;8.80;;;;;;;;;;5092742;28;20410;-57
2022/03/30 12:11:22;;;;;;;15.43;8.50;;;;;;;;;;5093058;28;20926;-59
2022/03/30 12:13:52;;;;;;;15.40;8.70;;;;;;;;;;5092802;28;20433;-57
2022/03/30 12:16:18;;;;;;;14.93;8.50;;;;;;;;;;5092824;28;20413;-59
2022/03/30 12:18:46;;;;;;;16.90;9.97;;;;;;;;;;5092737;28;20435;-61
2022/03/30 12:21:18;;;;;;;10.80;8.53;;;;;;;;;;5074489;28;20834;-62
2022/03/30 12:24:04;;;;;;;13.87;8.87;;;;;;;;;;5092923;28;20493;-62
2022/03/30 12:26:34;;;;;;;20.37;9.33;;;;;;;;;;5092599;28;20488;-61
2022/03/30 12:29:04;;;;;;;18.50;9.40;;;;;;;;;;5091588;28;20410;-62
2022/03/30 12:31:37;;;;;;;19.80;10.00;;;;;;;;;;5092461;28;20640;-60
2022/03/30 12:34:20;;;;;;;14.07;8.73;;;;;;;;;;5091622;28;20492;-59
2022/03/30 12:36:50;;;;;;;16.73;9.70;;;;;;;;;;5092217;28;20448;-60
2022/03/30 12:39:17;;;;;;;18.03;9.97;;;;;;;;;;5091686;28;20583;-62
2022/03/30 12:41:43;;;;;;;15.97;9.40;;;;;;;;;;5092615;28;20444;-60
2022/03/30 12:44:10;;;;;;;18.63;9.87;;;;;;;;;;5074754;28;20398;-60
2022/03/30 12:46:36;;;;;;;19.73;10.00;;;;;;;;;;5092435;28;20405;-61
2022/03/30 12:49:06;;;;;;;24.03;10.10;;;;;;;;;;5092248;28;20402;-59
2022/03/30 12:51:33;;;;;;;24.53;10.77;;;;;;;;;;5074612;28;20437;-60
2022/03/30 12:53:59;;;;;;;13.63;9.57;;;;;;;;;;5092443;28;20409;-61
2022/03/30 12:56:26;;;;;;;18.00;8.80;;;;;;;;;;5074348;28;20422;-60
2022/03/30 12:58:53;;;;;;;18.33;9.17;;;;;;;;;;5092396;28;20832;-60
2022/03/30 13:01:35;;;;;;;16.40;8.60;;;;;;;;;;5092548;28;20418;-58
2022/03/30 13:04:01;;;;;;;12.97;8.13;;;;;;;;;;5092314;28;20407;-59
2022/03/30 13:06:27;;;;;;;14.60;8.73;;;;;;;;;;5092313;28;20559;-62
2022/03/30 13:09:02;;;;;;;15.87;9.20;;;;;;;;;;5092537;28;20398;-62
2022/03/30 13:11:29;;;;;;;16.47;9.10;;;;;;;;;;5092144;28;20424;-62
2022/03/30 13:13:56;;;;;;;19.77;9.23;;;;;;;;;;5092319;28;20405;-60
2022/03/30 13:16:28;;;;;;;15.67;9.13;;;;;;;;;;5074274;28;20457;-60
2022/03/30 13:19:02;;;;;;;15.83;8.73;;;;;;;;;;5094745;28;20420;-58
2022/03/30 13:21:47;;;;;;;18.57;9.13;;;;;;;;;;5095964;28;20430;-61
2022/03/30 13:24:15;;;;;;;20.60;9.47;;;;;;;;;;5095816;28;20828;-59
2022/03/30 13:26:42;;;;;;;16.03;9.37;;;;;;;;;;5096024;28;20778;-59
2022/03/30 13:29:12;;;;;;;16.53;9.40;;;;;;;;;;5077867;28;20402;-57
2022/03/30 13:31:42;;;;;;;13.10;8.30;;;;;;;;;;5095887;28;20505;-62
2022/03/30 13:34:09;;;;;;;14.63;9.30;;;;;;;;;;5095740;28;20404;-61
2022/03/30 13:36:35;;;;;;;20.90;10.10;;;;;;;;;;5095705;28;20414;-63
2022/03/30 13:39:01;;;;;;;15.83;9.30;;;;;;;;;;5077457;28;20417;-57
2022/03/30 13:41:28;;;;;;;17.40;8.23;;;;;;;;;;5095567;28;20436;-58
2022/03/30 13:43:54;;;;;;;18.20;9.10;;;;;;;;;;5077537;28;20501;-56
2022/03/30 13:46:20;;;;;;;15.30;9.20;;;;;;;;;;5095735;28;20456;-58
2022/03/30 13:48:49;;;;;;;14.90;8.90;;;;;;;;;;5095415;28;20788;-60
2022/03/30 13:51:15;;;;;;;16.87;8.60;;;;;;;;;;5077331;28;20414;-58
2022/03/30 13:53:41;;;;;;;17.80;9.27;;;;;;;;;;5077192;28;20954;-59
2022/03/30 13:56:10;;;;;;;12.17;9.13;;;;;;;;;;5095380;28;20406;-58
2022/03/30 13:58:37;;;;;;;13.67;8.80;;;;;;;;;;5095407;28;20547;-57
2022/03/30 14:01:03;;;;;;;15.97;9.80;;;;;;;;;;5095217;28;20468;-60
2022/03/30 14:03:33;;;;;;;16.13;9.80;;;;;;;;;;5095228;28;20766;-58
2022/03/30 14:05:59;;;;;;;13.17;9.13;;;;;;;;;;5095085;28;20417;-56
2022/03/30 14:08:25;;;;;;;16.83;10.20;;;;;;;;;;5095283;28;20430;-59
2022/03/30 14:10:52;;;;;;;13.70;9.17;;;;;;;;;;5095330;28;20398;-59
2022/03/30 14:13:22;;;;;;;16.67;9.63;;;;;;;;;;5095067;28;20903;-60
2022/03/30 14:15:48;;;;;;;20.17;9.70;;;;;;;;;;5095238;28;20758;-58
2022/03/30 14:18:18;;;;;;;11.97;9.43;;;;;;;;;;5095152;28;20409;-62
2022/03/30 14:20:44;;;;;;;14.37;9.23;;;;;;;;;;5073302;28;20482;-58
2022/03/30 14:23:10;;;;;;;14.47;8.93;;;;;;;;;;5074728;28;20410;-59
2022/03/30 14:25:40;;;;;;;17.70;9.50;;;;;;;;;;5074705;28;20421;-59
2022/03/30 14:28:07;;;;;;;15.87;9.87;;;;;;;;;;5074741;28;20891;-59
2022/03/30 14:30:34;;;;;;;15.53;9.90;;;;;;;;;;5073929;28;20418;-57
2022/03/30 14:33:03;;;;;;;15.53;9.87;;;;;;;;;;5074629;28;20434;-60
2022/03/30 14:35:31;;;;;;;16.60;10.33;;;;;;;;;;5074476;28;20772;-60
2022/03/30 14:38:05;;;;;;;20.40;10.50;;;;;;;;;;5074728;28;20802;-59
2022/03/30 14:40:33;;;;;;;19.63;9.60;;;;;;;;;;5074214;28;20477;-58
2022/03/30 14:43:00;;;;;;;15.03;9.83;;;;;;;;;;5074423;28;20406;-60
2022/03/30 14:45:26;;;;;;;13.80;8.63;;;;;;;;;;5074578;28;20419;-61